createdAt,value
2022-10-05T00:01:56.561Z,0
2022-10-05T00:07:19.139Z,0
2022-10-05T00:12:41.472Z,0
2022-10-05T00:28:54.910Z,0
2022-10-05T00:34:17.560Z,0
2022-10-05T00:39:40.003Z,0
2022-10-05T00:45:02.797Z,0
2022-10-05T00:50:25.336Z,0
2022-10-05T00:55:47.952Z,0
2022-10-05T01:01:11.482Z,0
2022-10-05T01:06:34.380Z,0
2022-10-05T01:11:56.956Z,0
2022-10-05T01:17:19.387Z,0
2022-10-05T01:22:41.734Z,0
2022-10-05T01:28:04.607Z,0
2022-10-05T01:33:27.090Z,0
2022-10-05T01:38:49.600Z,1
2022-10-05T01:44:12.842Z,0
2022-10-05T01:49:35.492Z,0
2022-10-05T01:54:58.140Z,0
2022-10-05T02:16:54.645Z,0
2022-10-05T02:22:19.401Z,0
2022-10-05T02:27:42.002Z,0
2022-10-05T02:33:04.896Z,0
2022-10-05T02:38:29.614Z,0
2022-10-05T02:43:52.138Z,0
2022-10-05T02:49:14.762Z,0
2022-10-05T02:54:37.461Z,0
2022-10-05T03:00:09.352Z,0
2022-10-05T03:05:49.709Z,0
2022-10-05T03:11:12.644Z,0
2022-10-05T03:16:34.961Z,0
2022-10-05T03:21:59.762Z,0
2022-10-05T03:27:22.064Z,0
2022-10-05T03:32:44.636Z,0
2022-10-05T03:38:10.326Z,0
2022-10-05T03:43:33.118Z,0
2022-10-05T03:48:57.917Z,0
2022-10-05T03:54:20.616Z,1
2022-10-05T03:59:51.618Z,0
2022-10-05T04:15:59.633Z,0
2022-10-05T04:21:24.490Z,0
2022-10-05T04:26:48.478Z,0
2022-10-05T04:32:14.702Z,0
2022-10-05T04:37:37.078Z,0
2022-10-05T04:42:59.328Z,0
2022-10-05T04:48:24.576Z,3
2022-10-05T04:54:11.452Z,0
2022-10-05T04:59:34.062Z,0
2022-10-05T05:04:59.777Z,0
2022-10-05T05:10:29.871Z,0
2022-10-05T05:15:52.638Z,0
2022-10-05T05:21:14.977Z,4
2022-10-05T05:26:42.638Z,1
2022-10-05T05:32:05.056Z,6
2022-10-05T05:37:28.023Z,15
2022-10-05T05:42:50.628Z,31.1
2022-10-05T05:48:13.342Z,40.6
2022-10-05T05:53:35.628Z,56.5
2022-10-05T05:59:08.282Z,79.6
2022-10-05T06:04:39.712Z,115.6
2022-10-05T06:15:31.105Z,137.1
2022-10-05T06:20:56.304Z,120.6
2022-10-05T06:26:18.935Z,142.3
2022-10-05T06:31:41.766Z,146.8
2022-10-05T06:37:04.155Z,127.9
2022-10-05T06:42:27.147Z,194.9
2022-10-05T06:47:49.622Z,181
2022-10-05T06:53:12.095Z,216.1
2022-10-05T06:58:34.594Z,228
2022-10-05T07:04:10.606Z,191
2022-10-05T07:09:33.234Z,192
2022-10-05T07:15:20.030Z,169
2022-10-05T07:20:49.729Z,221.3
2022-10-05T07:26:12.527Z,282.7
2022-10-05T07:31:37.434Z,318.8
2022-10-05T07:37:00.329Z,276.4
2022-10-05T08:26:09.123Z,526.5
2022-10-05T08:31:54.494Z,480.4
2022-10-05T08:37:17.548Z,614.8
2022-10-05T08:42:40.286Z,609.7
2022-10-05T08:48:02.663Z,622.4
2022-10-05T08:53:25.295Z,690.5
2022-10-05T08:58:53.739Z,707.3
2022-10-05T09:04:16.938Z,620
2022-10-05T09:09:41.828Z,695.6
2022-10-05T09:15:27.192Z,928
2022-10-05T09:20:50.325Z,875
2022-10-05T09:26:19.567Z,944.5
2022-10-05T09:31:42.422Z,1354.8
2022-10-05T09:37:05.545Z,1453.2
2022-10-05T09:42:27.654Z,893.7
2022-10-05T09:48:00.509Z,1761.1
2022-10-05T09:53:23.529Z,1120
2022-10-05T09:58:47.865Z,1099.4
2022-10-05T10:04:10.895Z,3546.9
2022-10-05T10:09:39.051Z,1565
2022-10-05T10:15:04.187Z,3191.8
2022-10-05T10:20:26.651Z,3053.8
2022-10-05T10:31:12.762Z,2538.3
2022-10-05T10:36:35.797Z,2954.9
2022-10-05T10:41:58.650Z,2946.1
2022-10-05T10:52:55.924Z,2884.2
2022-10-05T10:58:20.544Z,2730.2
2022-10-05T11:04:00.981Z,2743.2
2022-10-05T11:09:24.134Z,2798.1
2022-10-05T11:14:49.765Z,3160.5
2022-10-05T11:20:13.124Z,3539.6
2022-10-05T11:25:35.860Z,3009.8
2022-10-05T11:31:07.967Z,3115.7
2022-10-05T11:36:31.547Z,3146.1
2022-10-05T11:41:54.417Z,2778.9
2022-10-05T11:47:17.002Z,3140.3
2022-10-05T11:52:39.752Z,3297.1
2022-10-05T11:59:35.535Z,3504.3
2022-10-05T12:04:58.652Z,3684.7
2022-10-05T12:10:30.359Z,3454.8
2022-10-05T12:15:53.361Z,3636.8
2022-10-05T12:21:16.036Z,3344
2022-10-05T12:26:38.789Z,3155.1
2022-10-05T12:32:01.448Z,3039.8
2022-10-05T12:53:21.080Z,2743.9
2022-10-05T12:58:55.575Z,2754.6
2022-10-05T13:04:18.209Z,2739.1
2022-10-05T13:09:41.098Z,2752
2022-10-05T13:15:17.184Z,2549.2
2022-10-05T13:20:39.715Z,2445.7
2022-10-05T13:26:02.242Z,2542.1
2022-10-05T13:31:37.916Z,2478.5
2022-10-05T13:37:01.006Z,2347.1
2022-10-05T13:42:33.370Z,2219.9
2022-10-05T13:47:58.349Z,2198.4
2022-10-05T13:53:22.716Z,2122.1
2022-10-05T13:59:06.267Z,2262.8
2022-10-05T14:15:14.391Z,2005
2022-10-05T14:20:37.307Z,2053.6
2022-10-05T14:26:04.742Z,1953.6
2022-10-05T14:31:27.733Z,1805.2
2022-10-05T14:36:50.487Z,1694.1
2022-10-05T14:42:13.216Z,1566.8
2022-10-05T14:47:38.083Z,1466.6
2022-10-05T14:53:02.932Z,1333.6
2022-10-05T14:58:24.457Z,170.6
2022-10-05T15:03:46.400Z,122.7
2022-10-05T15:09:18.068Z,106.9
2022-10-05T15:14:40.485Z,98.9
2022-10-05T15:20:12.144Z,100.6
2022-10-05T15:25:34.377Z,107.1
2022-10-05T15:30:56.979Z,217.3
2022-10-05T15:36:20.240Z,181.1
2022-10-05T15:41:42.620Z,119.6
2022-10-05T15:47:04.767Z,158.8
2022-10-05T15:58:15.878Z,116.2
2022-10-05T16:09:05.300Z,126
2022-10-05T16:14:28.099Z,84.4
2022-10-05T16:20:01.997Z,111.5
2022-10-05T16:25:24.424Z,116.2
2022-10-05T16:30:47.210Z,63.4
2022-10-05T16:36:17.075Z,76.3
2022-10-05T16:41:39.711Z,53.8
2022-10-05T16:47:04.297Z,46.3
2022-10-05T16:52:27.222Z,37.6
2022-10-05T16:57:49.617Z,31.4
2022-10-05T17:03:16.961Z,31.1
2022-10-05T17:08:39.340Z,23
2022-10-05T17:14:22.042Z,11
2022-10-05T17:19:44.752Z,2
2022-10-05T17:25:07.239Z,0
2022-10-05T17:30:29.891Z,0
2022-10-05T17:35:52.682Z,0
2022-10-05T17:41:15.337Z,0
2022-10-05T17:46:38.366Z,0
2022-10-05T17:52:01.055Z,0
2022-10-05T18:02:49.082Z,0
2022-10-05T18:08:11.819Z,0
2022-10-05T18:13:34.530Z,0
2022-10-05T18:19:14.706Z,0
2022-10-05T18:24:37.216Z,0
2022-10-05T18:29:59.707Z,0
2022-10-05T18:35:22.313Z,0
2022-10-05T18:40:45.230Z,0
2022-10-05T18:46:08.526Z,0
2022-10-05T18:51:31.740Z,0
2022-10-05T18:56:54.260Z,0
2022-10-05T19:02:17.430Z,0
2022-10-05T19:08:00.659Z,0
2022-10-05T19:13:23.948Z,0
2022-10-05T19:18:49.239Z,0
2022-10-05T19:24:11.697Z,0
2022-10-05T19:40:19.870Z,0
2022-10-05T19:45:42.971Z,0
2022-10-05T19:51:08.454Z,0
2022-10-05T19:56:31.396Z,0
2022-10-05T20:01:54.725Z,0
2022-10-05T20:07:27.671Z,0
2022-10-05T20:12:50.453Z,0
2022-10-05T20:56:35.631Z,0
2022-10-05T21:02:00.261Z,0
2022-10-05T21:08:00.501Z,0
2022-10-05T21:13:24.213Z,0
2022-10-05T21:19:21.903Z,0
2022-10-05T21:35:39.843Z,0
2022-10-05T21:41:04.538Z,0
2022-10-05T21:46:27.438Z,0
2022-10-05T21:51:50.124Z,2
2022-10-05T21:57:12.585Z,0
2022-10-05T22:02:34.864Z,0
2022-10-05T22:07:57.208Z,0
2022-10-05T22:13:22.984Z,2
2022-10-05T22:24:12.048Z,0
2022-10-05T22:29:34.774Z,0
2022-10-05T22:35:00.228Z,0
2022-10-05T22:40:22.997Z,0
2022-10-05T22:45:55.018Z,0
2022-10-05T22:51:17.716Z,0
2022-10-05T22:56:43.109Z,0
2022-10-05T23:02:13.546Z,0
2022-10-05T23:07:36.771Z,0
2022-10-05T23:13:01.483Z,0
2022-10-05T23:21:43.681Z,0
2022-10-05T23:27:07.112Z,0
2022-10-05T23:32:29.425Z,0
2022-10-05T23:39:20.677Z,0
2022-10-05T23:44:43.984Z,0
2022-10-05T23:50:08.869Z,0
2022-10-05T23:55:48.780Z,0
